aviador You're here:

KCDW Decoded Metar

CALDWELL in NJ, USA
Report Time2018-05-21 19:53:00
UTC Time2018-05-21 20:40:40
Flight Rules vfr VFR
Wind160° at 04 kt
W.Decomp.*RWY 22: 2.7 kt HW 2.9 kt LCW
RWY 10: 1.2 kt HW 3.8 kt RCW
W.Rank160° ranks 20
Current wind is below 160° avg. (7.3)
Visibility9999 m
Phenomena:N/A
Clouds:N/A
Expected CloudBase > 7,600 ft AGL from Temp-Dew spread
CeilingNone
Temp26°C (ISA +11)
Dew Point07°C (30% RH)
AAT23.9°C
QNH1020 hPa
Density Alt1,434 ft
Elevation210 ft
Report Wrong Elevation
Raw Report
KCDW 211953Z 16004KT 10SM CLR 26/07 A3013 RMK AO2 SLP206
T02560072=

Extra information for KCDW:More info

Metar Taf Metar & Taf Last 4 Metars F.Rules Stats Wind Profile Meteogram Temp Stats Airport Information Weather charts Add Link Nearby VenuesMetar ALERT Operation Metar Decoded Social comments

AIRNAV info for KCDW